createdAt,value
2019-03-10T00:02:16.525Z,73.43
2019-03-10T00:04:44.186Z,73.55
2019-03-10T00:07:10.770Z,74.02
2019-03-10T00:09:37.314Z,74.09
2019-03-10T00:12:04.424Z,74.35
2019-03-10T00:14:30.960Z,74.43
2019-03-10T00:16:57.718Z,74.28
2019-03-10T00:19:24.792Z,74.19
2019-03-10T00:21:51.348Z,74.18
2019-03-10T00:24:17.995Z,74.30
2019-03-10T00:26:44.852Z,74.46
2019-03-10T00:29:16.494Z,74.34
2019-03-10T00:31:43.190Z,74.45
2019-03-10T00:34:10.158Z,74.50
2019-03-10T00:36:36.759Z,73.82
2019-03-10T00:39:54.108Z,73.56
2019-03-10T00:43:01.035Z,73.19
2019-03-10T00:46:11.206Z,72.92
2019-03-10T00:49:25.549Z,72.77
2019-03-10T00:52:19.694Z,71.74
2019-03-10T00:54:46.342Z,71.31
2019-03-10T00:57:12.914Z,71.48
2019-03-10T00:59:39.510Z,71.29
2019-03-10T01:02:06.119Z,71.65
2019-03-10T01:04:32.826Z,70.98
2019-03-10T01:07:01.552Z,71.00
2019-03-10T01:09:28.052Z,71.11
2019-03-10T01:11:54.837Z,70.60
2019-03-10T01:14:21.545Z,70.48
2019-03-10T01:16:49.169Z,70.14
2019-03-10T01:19:15.828Z,69.92
2019-03-10T01:21:43.919Z,70.40
2019-03-10T01:24:10.687Z,69.98
2019-03-10T01:26:37.672Z,69.71
2019-03-10T01:29:04.557Z,69.82
2019-03-10T01:31:44.594Z,69.66
2019-03-10T01:34:37.818Z,69.76
2019-03-10T01:37:04.450Z,69.28
2019-03-10T01:39:32.082Z,69.56
2019-03-10T01:41:58.754Z,69.52
2019-03-10T01:44:25.284Z,68.95
2019-03-10T01:46:51.892Z,68.66
2019-03-10T01:49:18.874Z,68.46
2019-03-10T01:51:45.433Z,68.91
2019-03-10T01:54:12.395Z,68.26
2019-03-10T01:56:38.927Z,67.81
2019-03-10T01:59:05.476Z,68.37
2019-03-10T02:01:32.015Z,68.51
2019-03-10T02:03:58.650Z,68.49
2019-03-10T02:06:25.291Z,68.44
2019-03-10T02:08:52.178Z,68.32
2019-03-10T02:11:18.815Z,68.39
2019-03-10T02:13:45.664Z,68.30
2019-03-10T02:16:12.501Z,68.30
2019-03-10T02:18:39.058Z,68.21
2019-03-10T02:21:06.917Z,68.34
2019-03-10T02:23:33.564Z,68.57
2019-03-10T02:26:00.398Z,68.33
2019-03-10T02:28:27.003Z,68.86
2019-03-10T02:30:53.582Z,68.72
2019-03-10T02:33:20.431Z,68.76
2019-03-10T02:35:46.960Z,68.98
2019-03-10T02:38:13.569Z,69.01
2019-03-10T02:40:43.258Z,69.13
2019-03-10T02:43:09.998Z,69.57
2019-03-10T02:45:36.693Z,69.72
2019-03-10T02:48:03.436Z,69.73
2019-03-10T02:50:30.011Z,69.78
2019-03-10T02:52:56.616Z,69.95
2019-03-10T02:55:23.180Z,70.04
2019-03-10T02:57:50.072Z,70.47
2019-03-10T03:00:16.841Z,70.67
2019-03-10T03:02:43.470Z,70.78
2019-03-10T03:05:10.242Z,70.94
2019-03-10T03:07:36.988Z,71.09
2019-03-10T03:10:04.104Z,70.78
2019-03-10T03:12:31.741Z,70.94
2019-03-10T03:14:58.283Z,71.08
2019-03-10T03:17:24.855Z,71.50
2019-03-10T03:19:51.440Z,71.23
2019-03-10T03:22:18.369Z,71.29
2019-03-10T03:24:45.055Z,71.69
2019-03-10T03:27:11.684Z,71.83
2019-03-10T03:29:38.241Z,72.01
2019-03-10T03:32:05.052Z,71.94
2019-03-10T03:34:31.645Z,71.81
2019-03-10T03:36:58.595Z,72.19
2019-03-10T03:39:31.023Z,72.02
2019-03-10T03:41:57.589Z,71.89
2019-03-10T03:44:24.383Z,72.14
2019-03-10T03:46:51.171Z,72.21
2019-03-10T03:49:17.733Z,72.22
2019-03-10T03:51:44.362Z,72.45
2019-03-10T03:54:10.846Z,72.30
2019-03-10T03:56:37.459Z,72.43
2019-03-10T03:59:04.416Z,72.94
2019-03-10T04:01:44.487Z,72.75
2019-03-10T04:04:11.083Z,73.04
2019-03-10T04:06:37.691Z,73.22
2019-03-10T04:09:06.099Z,73.42
2019-03-10T04:11:32.617Z,73.34
2019-03-10T04:13:59.221Z,73.52
2019-03-10T04:16:30.982Z,73.52
2019-03-10T04:18:57.791Z,73.49
2019-03-10T04:21:24.589Z,73.43
2019-03-10T04:23:51.192Z,73.45
2019-03-10T04:26:17.904Z,73.41
2019-03-10T04:28:44.533Z,73.15
2019-03-10T04:31:11.452Z,72.93
2019-03-10T04:33:38.424Z,72.90
2019-03-10T04:36:05.290Z,72.64
2019-03-10T04:38:31.873Z,72.12
2019-03-10T04:40:58.688Z,72.09
2019-03-10T04:43:25.523Z,71.90
2019-03-10T04:45:52.051Z,72.05
2019-03-10T04:48:18.606Z,72.10
2019-03-10T04:50:45.639Z,72.06
2019-03-10T04:53:12.527Z,71.94
2019-03-10T04:55:58.948Z,72.19
2019-03-10T04:58:25.560Z,72.69
2019-03-10T05:00:54.030Z,72.66
2019-03-10T05:03:21.004Z,72.88
2019-03-10T05:05:48.907Z,73.32
2019-03-10T05:08:15.730Z,73.27
2019-03-10T05:10:42.393Z,73.19
2019-03-10T05:13:09.112Z,73.47
2019-03-10T05:15:35.942Z,73.84
2019-03-10T05:18:02.562Z,74.12
2019-03-10T05:20:29.232Z,74.24
2019-03-10T05:23:27.036Z,74.35
2019-03-10T05:25:54.103Z,73.56
2019-03-10T05:28:20.729Z,73.92
2019-03-10T05:30:47.283Z,73.73
2019-03-10T05:33:14.029Z,74.00
2019-03-10T05:35:41.800Z,73.80
2019-03-10T05:38:08.448Z,74.17
2019-03-10T05:40:36.679Z,75.25
2019-03-10T05:43:03.346Z,74.62
2019-03-10T05:45:30.034Z,75.51
2019-03-10T05:47:59.365Z,75.14
2019-03-10T05:50:26.182Z,74.93
2019-03-10T05:52:53.280Z,75.80
2019-03-10T05:55:22.117Z,76.09
2019-03-10T05:57:48.903Z,76.90
2019-03-10T06:00:15.828Z,77.49
2019-03-10T06:02:42.542Z,77.67
2019-03-10T06:05:09.327Z,78.03
2019-03-10T06:07:36.228Z,78.18
2019-03-10T06:10:04.565Z,78.86
2019-03-10T06:12:31.628Z,78.80
2019-03-10T06:14:58.637Z,78.60
2019-03-10T06:17:26.742Z,79.12
2019-03-10T06:19:53.538Z,79.73
2019-03-10T06:22:20.168Z,79.93
2019-03-10T06:24:46.870Z,79.75
2019-03-10T06:27:15.152Z,80.88
2019-03-10T06:29:42.338Z,81.92
2019-03-10T06:32:09.281Z,83.02
2019-03-10T06:34:38.193Z,82.90
2019-03-10T06:37:05.299Z,83.68
2019-03-10T06:39:32.165Z,84.29
2019-03-10T06:41:58.995Z,84.71
2019-03-10T06:44:25.554Z,85.22
2019-03-10T06:46:52.353Z,85.75
2019-03-10T06:49:19.145Z,85.52
2019-03-10T06:51:48.612Z,86.54
2019-03-10T06:54:15.748Z,86.81
2019-03-10T06:56:42.682Z,87.48
2019-03-10T06:59:12.888Z,87.59
2019-03-10T07:01:39.567Z,87.54
2019-03-10T07:04:08.894Z,88.03
2019-03-10T07:06:35.990Z,88.13
2019-03-10T07:09:04.443Z,87.94
2019-03-10T07:11:31.176Z,88.94
2019-03-10T07:13:57.983Z,89.06
2019-03-10T07:16:27.855Z,89.41
2019-03-10T07:18:55.586Z,89.15
2019-03-10T07:21:22.213Z,89.35
2019-03-10T07:23:48.953Z,89.95
2019-03-10T07:26:15.604Z,90.16
2019-03-10T07:28:50.409Z,89.69
2019-03-10T07:31:42.441Z,89.87
2019-03-10T07:34:27.233Z,90.18
2019-03-10T07:37:16.506Z,90.39
2019-03-10T07:40:01.986Z,90.71
2019-03-10T07:42:57.354Z,91.20
2019-03-10T07:48:38.438Z,90.64
2019-03-10T07:51:37.656Z,90.77
2019-03-10T07:54:35.929Z,90.98
2019-03-10T07:57:12.889Z,91.41
2019-03-10T07:59:59.395Z,90.85
2019-03-10T08:02:55.458Z,90.58
2019-03-10T08:05:30.007Z,90.45
2019-03-10T08:08:25.348Z,90.15
2019-03-10T08:11:24.486Z,90.45
2019-03-10T08:14:01.085Z,90.68
2019-03-10T08:17:05.167Z,91.12
2019-03-10T08:19:51.430Z,90.82
2019-03-10T08:22:27.090Z,91.54
2019-03-10T08:25:22.352Z,90.90
2019-03-10T08:28:11.661Z,91.03
2019-03-10T08:31:04.009Z,90.74
2019-03-10T08:33:59.381Z,91.33
2019-03-10T08:36:39.676Z,91.40
2019-03-10T08:39:15.983Z,90.66
2019-03-10T08:41:54.767Z,90.94
2019-03-10T08:44:43.898Z,90.71
2019-03-10T08:47:32.910Z,90.55
2019-03-10T08:50:07.665Z,89.39
2019-03-10T08:52:38.392Z,89.59
2019-03-10T08:55:23.766Z,89.55
2019-03-10T08:58:03.738Z,88.58
2019-03-10T09:00:52.948Z,88.63
2019-03-10T09:03:33.793Z,89.40
2019-03-10T09:06:07.241Z,89.23
2019-03-10T09:08:50.478Z,89.75
2019-03-10T09:11:34.964Z,89.77
2019-03-10T09:14:24.343Z,89.91
2019-03-10T09:17:04.329Z,89.44
2019-03-10T09:19:53.102Z,90.46
2019-03-10T09:22:54.841Z,89.85
2019-03-10T09:25:39.928Z,90.68
2019-03-10T09:28:25.318Z,91.29
2019-03-10T09:31:10.236Z,90.67
2019-03-10T09:33:49.184Z,91.28
2019-03-10T09:36:47.876Z,90.66
2019-03-10T09:39:40.563Z,90.45
2019-03-10T09:42:28.481Z,90.99
2019-03-10T09:45:04.960Z,90.79
2019-03-10T09:47:51.378Z,90.49
2019-03-10T09:50:43.716Z,90.28
2019-03-10T09:53:45.019Z,90.87
2019-03-10T09:56:31.539Z,90.13
2019-03-10T09:59:20.598Z,90.96
2019-03-10T10:02:09.427Z,91.58
2019-03-10T10:04:50.057Z,91.23
2019-03-10T10:07:39.601Z,91.46
2019-03-10T10:10:14.201Z,92.08
2019-03-10T10:12:59.099Z,91.83
2019-03-10T10:15:33.833Z,92.13
2019-03-10T10:18:23.993Z,90.72
2019-03-10T10:21:23.177Z,91.94
2019-03-10T10:24:05.418Z,92.38
2019-03-10T10:26:58.361Z,91.93
2019-03-10T10:30:03.627Z,92.04
2019-03-10T10:32:56.072Z,92.61
2019-03-10T10:35:40.852Z,92.89
2019-03-10T10:38:19.281Z,92.38
2019-03-10T10:40:53.353Z,91.86
2019-03-10T10:43:44.339Z,92.13
2019-03-10T10:46:27.004Z,92.74
2019-03-10T10:49:02.283Z,92.00
2019-03-10T10:52:03.146Z,91.60
2019-03-10T10:54:49.384Z,90.09
2019-03-10T10:57:55.133Z,89.26
2019-03-10T11:00:35.978Z,88.57
2019-03-10T11:03:35.098Z,88.44
2019-03-10T11:06:27.707Z,88.65
2019-03-10T11:09:08.084Z,88.71
2019-03-10T11:11:55.797Z,87.90
2019-03-10T11:14:42.817Z,87.69
2019-03-10T11:17:29.646Z,87.74
2019-03-10T11:20:18.671Z,86.87
2019-03-10T11:23:02.418Z,88.07
2019-03-10T11:25:49.738Z,89.11
2019-03-10T11:28:37.887Z,89.67
2019-03-10T11:31:14.395Z,89.82
2019-03-10T11:34:12.605Z,89.58
2019-03-10T11:36:59.848Z,89.52
2019-03-10T11:39:38.561Z,88.06
2019-03-10T11:45:12.362Z,85.82
2019-03-10T11:48:06.936Z,86.91
2019-03-10T11:50:46.480Z,85.94
2019-03-10T11:53:19.758Z,86.68
2019-03-10T11:56:04.741Z,87.12
2019-03-10T11:58:36.975Z,87.98
2019-03-10T12:01:17.561Z,87.59
2019-03-10T12:03:58.750Z,87.83
2019-03-10T12:06:37.660Z,87.50
2019-03-10T12:09:14.833Z,84.63
2019-03-10T12:11:41.548Z,85.12
2019-03-10T12:14:08.675Z,83.79
2019-03-10T12:16:36.294Z,83.50
2019-03-10T12:19:05.982Z,81.35
2019-03-10T12:21:33.468Z,79.51
2019-03-10T12:24:00.749Z,79.18
2019-03-10T12:26:28.451Z,78.56
2019-03-10T12:28:56.483Z,77.02
2019-03-10T12:31:23.546Z,77.47
2019-03-10T12:33:50.623Z,76.04
2019-03-10T12:36:18.098Z,75.97
2019-03-10T12:38:46.461Z,76.38
2019-03-10T12:41:13.222Z,71.73
2019-03-10T12:43:39.710Z,72.40
2019-03-10T12:46:07.704Z,71.54
2019-03-10T12:48:34.313Z,71.83
2019-03-10T12:51:02.140Z,70.62
2019-03-10T12:53:29.108Z,72.16
2019-03-10T12:55:56.171Z,71.77
2019-03-10T12:58:24.126Z,68.48
2019-03-10T13:00:50.872Z,69.62
2019-03-10T13:03:18.521Z,72.06
2019-03-10T13:05:45.219Z,70.76
2019-03-10T13:08:12.753Z,72.47
2019-03-10T13:10:39.557Z,76.21
2019-03-10T13:13:06.621Z,79.92
2019-03-10T13:15:34.563Z,82.58
2019-03-10T13:18:01.380Z,84.56
2019-03-10T13:20:28.829Z,84.21
2019-03-10T13:22:55.530Z,84.26
2019-03-10T13:25:22.270Z,83.68
2019-03-10T13:27:48.961Z,82.71
2019-03-10T13:30:18.378Z,83.43
2019-03-10T13:32:45.463Z,83.77
2019-03-10T13:35:12.506Z,86.67
2019-03-10T13:37:39.170Z,88.94
2019-03-10T13:40:06.019Z,87.86
2019-03-10T13:42:33.916Z,88.39
2019-03-10T13:45:01.819Z,90.46
2019-03-10T13:47:28.561Z,91.00
2019-03-10T13:49:55.412Z,89.46
2019-03-10T13:52:23.170Z,89.21
2019-03-10T13:54:57.702Z,88.62
2019-03-10T13:57:24.929Z,87.51
2019-03-10T13:59:51.711Z,86.11
2019-03-10T14:02:18.779Z,85.55
2019-03-10T14:04:45.953Z,85.80
2019-03-10T14:07:18.598Z,86.00
2019-03-10T14:09:45.855Z,85.50
2019-03-10T14:12:12.777Z,85.51
2019-03-10T14:14:40.223Z,85.35
2019-03-10T14:17:07.232Z,85.12
2019-03-10T14:19:34.163Z,85.81
2019-03-10T14:22:00.923Z,85.03
2019-03-10T14:24:29.162Z,85.41
2019-03-10T14:26:55.934Z,83.07
2019-03-10T14:29:23.568Z,82.84
2019-03-10T14:31:50.262Z,83.54
2019-03-10T14:34:16.993Z,82.31
2019-03-10T14:36:43.747Z,82.69
2019-03-10T14:39:10.574Z,79.79
2019-03-10T14:41:37.332Z,79.07
2019-03-10T14:44:04.078Z,79.93
2019-03-10T14:46:30.887Z,76.45
2019-03-10T14:48:57.574Z,76.49
2019-03-10T14:51:24.273Z,73.62
2019-03-10T14:53:50.955Z,72.59
2019-03-10T14:56:17.562Z,72.28
2019-03-10T14:58:44.472Z,71.45
2019-03-10T15:01:11.760Z,71.91
2019-03-10T15:03:38.483Z,72.40
2019-03-10T15:06:05.023Z,73.57
2019-03-10T15:08:31.761Z,74.27
2019-03-10T15:10:59.162Z,74.63
2019-03-10T15:13:26.749Z,73.80
2019-03-10T15:15:53.588Z,74.50
2019-03-10T15:18:20.708Z,75.87
2019-03-10T15:20:47.645Z,74.29
2019-03-10T15:23:15.541Z,74.04
2019-03-10T15:25:45.465Z,73.41
2019-03-10T15:28:13.138Z,72.71
2019-03-10T15:30:40.050Z,72.65
2019-03-10T15:33:06.776Z,72.76
2019-03-10T15:35:33.863Z,71.11
2019-03-10T15:38:01.698Z,73.65
2019-03-10T15:40:29.783Z,70.49
2019-03-10T15:42:57.906Z,70.13
2019-03-10T15:45:27.799Z,69.01
2019-03-10T15:47:55.507Z,68.14
2019-03-10T15:50:23.097Z,64.74
2019-03-10T15:52:51.210Z,63.92
2019-03-10T15:55:18.704Z,62.69
2019-03-10T15:57:50.243Z,64.49
2019-03-10T16:00:15.637Z,63.52
2019-03-10T16:02:42.460Z,61.42
2019-03-10T16:05:10.103Z,61.04
2019-03-10T16:07:37.081Z,59.56
2019-03-10T16:10:04.005Z,59.45
2019-03-10T16:12:30.569Z,58.38
2019-03-10T16:14:58.251Z,58.87
2019-03-10T16:17:24.925Z,58.62
2019-03-10T16:19:54.220Z,58.33
2019-03-10T16:22:22.172Z,58.45
2019-03-10T16:24:49.088Z,56.09
2019-03-10T16:27:15.674Z,55.68
2019-03-10T16:29:42.318Z,54.89
2019-03-10T16:32:09.087Z,55.42
2019-03-10T16:34:35.844Z,55.82
2019-03-10T16:37:02.782Z,55.77
2019-03-10T16:39:29.458Z,57.10
2019-03-10T16:41:56.746Z,56.62
2019-03-10T16:44:23.462Z,54.97
2019-03-10T16:46:53.194Z,54.18
2019-03-10T16:49:20.161Z,54.99
2019-03-10T16:51:48.065Z,55.46
2019-03-10T16:54:14.826Z,55.16
2019-03-10T16:56:41.590Z,55.16
2019-03-10T16:59:08.255Z,55.30
2019-03-10T17:01:34.877Z,55.46
2019-03-10T17:04:01.470Z,54.99
2019-03-10T17:06:28.467Z,55.07
2019-03-10T17:08:55.061Z,55.33
2019-03-10T17:11:21.828Z,55.81
2019-03-10T17:13:48.653Z,55.38
2019-03-10T17:16:16.435Z,55.09
2019-03-10T17:18:44.553Z,55.51
2019-03-10T17:21:13.253Z,55.20
2019-03-10T17:23:40.076Z,55.21
2019-03-10T17:26:06.682Z,53.77
2019-03-10T17:28:33.402Z,53.39
2019-03-10T17:31:00.098Z,52.62
2019-03-10T17:33:27.084Z,52.06
2019-03-10T17:35:54.476Z,52.63
2019-03-10T17:38:21.350Z,53.24
2019-03-10T17:40:48.188Z,53.25
2019-03-10T17:43:14.708Z,53.64
2019-03-10T17:45:41.568Z,53.11
2019-03-10T17:48:09.249Z,51.79
2019-03-10T17:50:35.810Z,51.01
2019-03-10T17:53:02.420Z,51.02
2019-03-10T17:55:29.066Z,51.17
2019-03-10T17:57:55.683Z,51.69
2019-03-10T18:00:23.292Z,52.09
2019-03-10T18:02:50.110Z,51.90
2019-03-10T18:05:17.028Z,52.18
2019-03-10T18:07:43.678Z,52.33
2019-03-10T18:10:11.755Z,51.82
2019-03-10T18:12:38.413Z,49.90
2019-03-10T18:15:09.063Z,48.79
2019-03-10T18:17:34.524Z,48.57
2019-03-10T18:20:02.155Z,47.84
2019-03-10T18:22:28.866Z,49.29
2019-03-10T18:24:55.756Z,52.19
2019-03-10T18:27:22.354Z,54.70
2019-03-10T18:29:48.941Z,54.97
2019-03-10T18:32:16.004Z,55.31
2019-03-10T18:34:46.744Z,55.39
2019-03-10T18:37:13.356Z,55.36
2019-03-10T18:39:39.844Z,53.58
2019-03-10T18:42:06.448Z,53.74
2019-03-10T18:44:33.314Z,51.65
2019-03-10T18:46:59.898Z,50.29
2019-03-10T18:49:26.709Z,49.63
2019-03-10T18:51:53.351Z,49.73
2019-03-10T18:54:20.111Z,50.09
2019-03-10T18:56:46.769Z,50.42
2019-03-10T18:59:13.670Z,50.13
2019-03-10T19:01:40.656Z,50.04
2019-03-10T19:04:07.148Z,50.01
2019-03-10T19:06:34.401Z,50.50
2019-03-10T19:09:01.667Z,50.84
2019-03-10T19:11:28.745Z,52.24
2019-03-10T19:13:55.977Z,52.89
2019-03-10T19:16:22.856Z,52.85
2019-03-10T19:18:49.908Z,53.66
2019-03-10T19:21:16.914Z,53.20
2019-03-10T19:23:43.944Z,53.45
2019-03-10T19:26:11.531Z,54.40
2019-03-10T19:28:38.439Z,55.14
2019-03-10T19:31:05.507Z,55.48
2019-03-10T19:33:32.321Z,54.59
2019-03-10T19:35:59.179Z,55.13
2019-03-10T19:38:25.782Z,56.09
2019-03-10T19:40:52.663Z,57.19
2019-03-10T19:43:19.345Z,58.28
2019-03-10T19:45:45.869Z,58.79
2019-03-10T19:48:12.799Z,59.65
2019-03-10T19:50:39.482Z,60.17
2019-03-10T19:53:06.530Z,60.88
2019-03-10T19:55:33.450Z,61.95
2019-03-10T19:58:02.109Z,62.74
2019-03-10T20:00:28.870Z,63.88
2019-03-10T20:02:55.585Z,64.68
2019-03-10T20:05:22.867Z,65.96
2019-03-10T20:07:49.810Z,67.56
2019-03-10T20:10:16.798Z,69.03
2019-03-10T20:12:43.666Z,68.66
2019-03-10T20:15:12.214Z,69.24
2019-03-10T20:17:39.160Z,70.11
2019-03-10T20:20:08.220Z,70.75
2019-03-10T20:22:34.903Z,71.44
2019-03-10T20:25:02.655Z,72.31
2019-03-10T20:27:29.518Z,73.58
2019-03-10T20:29:56.402Z,73.66
2019-03-10T20:32:23.580Z,74.37
2019-03-10T20:34:50.229Z,74.31
2019-03-10T20:37:16.800Z,75.23
2019-03-10T20:39:43.389Z,75.80
2019-03-10T20:42:12.207Z,75.25
2019-03-10T20:44:40.481Z,75.97
2019-03-10T20:47:08.592Z,75.76
2019-03-10T20:49:35.374Z,76.58
2019-03-10T20:52:02.405Z,76.10
2019-03-10T20:54:29.199Z,76.19
2019-03-10T20:56:56.130Z,76.55
2019-03-10T20:59:23.206Z,76.84
2019-03-10T21:01:50.135Z,76.28
2019-03-10T21:04:19.439Z,77.03
2019-03-10T21:06:46.305Z,76.73
2019-03-10T21:09:13.509Z,77.07
2019-03-10T21:11:40.624Z,77.03
2019-03-10T21:14:08.534Z,76.82
2019-03-10T21:16:36.012Z,77.12
2019-03-10T21:19:02.790Z,77.50
2019-03-10T21:21:29.606Z,77.92
2019-03-10T21:23:57.413Z,77.84
2019-03-10T21:26:32.637Z,78.88
2019-03-10T21:28:59.634Z,78.75
2019-03-10T21:31:26.787Z,78.89
2019-03-10T21:33:55.374Z,79.38
2019-03-10T21:36:22.626Z,79.93
2019-03-10T21:39:02.802Z,80.29
2019-03-10T21:41:30.914Z,80.56
2019-03-10T21:43:57.986Z,80.76
2019-03-10T21:46:29.105Z,80.90
2019-03-10T21:49:00.514Z,81.03
2019-03-10T21:51:28.265Z,81.57
2019-03-10T21:53:54.787Z,81.61
2019-03-10T21:56:22.680Z,82.62
2019-03-10T21:58:50.616Z,83.21
2019-03-10T22:01:17.251Z,83.90
2019-03-10T22:03:43.814Z,84.87
2019-03-10T22:06:10.831Z,85.42
2019-03-10T22:08:45.961Z,86.17
2019-03-10T22:11:12.534Z,87.17
2019-03-10T22:13:46.484Z,87.87
2019-03-10T22:16:08.023Z,88.00
2019-03-10T22:18:34.668Z,88.26
2019-03-10T22:21:02.244Z,88.55
2019-03-10T22:23:28.798Z,88.98
2019-03-10T22:25:55.441Z,89.10
2019-03-10T22:28:21.933Z,89.27
2019-03-10T22:30:48.470Z,89.70
2019-03-10T22:33:15.246Z,89.92
2019-03-10T22:35:41.866Z,89.66
2019-03-10T22:38:09.437Z,89.04
2019-03-10T22:40:36.040Z,89.00
2019-03-10T22:43:03.780Z,89.11
2019-03-10T22:45:30.328Z,89.35
2019-03-10T22:47:56.872Z,89.33
2019-03-10T22:50:23.360Z,89.02
2019-03-10T22:52:49.956Z,87.19
2019-03-10T22:55:16.736Z,85.88
2019-03-10T22:57:43.460Z,83.75
2019-03-10T23:00:12.512Z,83.08
2019-03-10T23:02:39.178Z,82.44
2019-03-10T23:05:07.130Z,81.38
2019-03-10T23:07:33.708Z,80.76
2019-03-10T23:10:00.328Z,81.01
2019-03-10T23:12:26.865Z,80.69
2019-03-10T23:14:53.444Z,80.05
2019-03-10T23:17:20.178Z,79.91
2019-03-10T23:19:46.685Z,79.67
2019-03-10T23:22:13.299Z,79.55
2019-03-10T23:24:40.083Z,79.31
2019-03-10T23:27:06.649Z,79.31
2019-03-10T23:29:33.162Z,79.12
2019-03-10T23:31:59.999Z,79.10
2019-03-10T23:34:27.816Z,78.86
2019-03-10T23:36:54.647Z,78.72
2019-03-10T23:39:21.212Z,78.17
2019-03-10T23:41:47.751Z,77.33
2019-03-10T23:44:14.269Z,77.43
2019-03-10T23:46:40.894Z,77.52
2019-03-10T23:49:07.425Z,76.96
2019-03-10T23:51:33.948Z,77.06
2019-03-10T23:54:00.481Z,77.09
2019-03-10T23:56:27.200Z,77.07
2019-03-10T23:58:55.076Z,77.02
